Revere, Minnesota
Current Conditions -  °F | °C
As of 5:53 PM on Saturday 25 Oct 2014 (Local Time) from KTKC Reporting Station
Clear Clear  
Wind Chill: 60°   Ceiling: Unl
Heat Index: 60°   Visibility: 10mi
Dew Point: 31°   Wind: 5mph
Humidity: 34%   Direction: 350°N
Pressure: 30.1"   Gusts: NA
Location:  44.22°N, 95.36°W
Report Text: KTKC 252253Z AUTO 35004KT 10SM CLR 15/00 A3010 RMK AO2 T01541005
Loading
Personal Weather Stations






























Interactive Weather Map
Tropical Storm Tracking
New forecast layout! Learn more

10-Day Weather Forecast

Advertisements
Track Severe Weather on mobile